Time,TemperatureF,DewpointF,PressureIn,WindDirection,WindDirectionDegrees,WindSpeedMPH,WindSpeedGustMPH,Humidity,HourlyPrecipIn,Conditions,Clouds,dailyrainin,SoftwareType,DateUTC
2013-09-20 00:01:00,65.8,55.4,30.05,SW,224,0.0,0.0,69,0.00,,,0.00,WUHU21623XXSP,2013-09-20 04:01:00,
2013-09-20 00:03:00,65.8,55.4,30.05,SW,224,0.8,0.8,69,0.00,,,0.00,WUHU21623XXSP,2013-09-20 04:03:00,
2013-09-20 00:04:00,65.8,55.4,30.05,SW,224,0.8,0.8,69,0.00,,,0.00,WUHU21623XXSP,2013-09-20 04:04:00,
2013-09-20 00:11:00,65.5,55.0,30.05,SSW,202,0.0,0.8,69,0.00,,,0.00,WUHU21623XXSP,2013-09-20 04:11:00,
2013-09-20 00:13:00,65.5,55.0,30.05,SSW,202,0.0,0.8,69,0.00,,,0.00,WUHU21623XXSP,2013-09-20 04:13:00,
2013-09-20 00:19:00,65.1,55.1,30.04,SSW,202,0.0,0.0,70,0.00,,,0.00,WUHU21623XXSP,2013-09-20 04:19:00,
2013-09-20 00:26:00,65.1,55.1,30.04,SSW,202,0.0,0.0,70,0.00,,,0.00,WUHU21623XXSP,2013-09-20 04:26:00,
2013-09-20 00:32:00,65.1,55.1,30.04,SSW,202,0.0,0.0,70,0.00,,,0.00,WUHU21623XXSP,2013-09-20 04:32:00,
2013-09-20 00:38:00,65.1,55.1,30.04,SSW,202,0.0,0.0,70,0.00,,,0.00,WUHU21623XXSP,2013-09-20 04:38:00,
2013-09-20 00:45:00,65.1,55.1,30.04,South,179,0.0,0.8,70,0.00,,,0.00,WUHU21623XXSP,2013-09-20 04:45:00,
2013-09-20 00:52:00,64.9,55.0,30.05,SSW,202,1.1,1.1,70,0.00,,,0.00,WUHU21623XXSP,2013-09-20 04:52:00,
2013-09-20 00:58:00,64.8,54.8,30.04,SSW,202,0.0,1.1,70,0.00,,,0.00,WUHU21623XXSP,2013-09-20 04:58:00,
2013-09-20 01:04:00,64.8,54.8,30.04,SW,224,0.0,0.8,70,0.00,,,0.00,WUHU21623XXSP,2013-09-20 05:04:00,
2013-09-20 01:09:00,64.8,54.8,30.04,SW,224,0.8,0.8,70,0.00,,,0.00,WUHU21623XXSP,2013-09-20 05:09:00,
2013-09-20 01:15:00,64.9,55.0,30.04,WSW,247,0.0,1.3,70,0.00,,,0.00,WUHU21623XXSP,2013-09-20 05:15:00,
2013-09-20 01:22:00,64.9,55.0,30.04,SW,224,0.8,0.8,70,0.00,,,0.00,WUHU21623XXSP,2013-09-20 05:22:00,
2013-09-20 01:28:00,64.9,55.0,30.04,SW,224,0.8,0.8,70,0.00,,,0.00,WUHU21623XXSP,2013-09-20 05:28:00,
2013-09-20 01:34:00,64.9,55.0,30.05,WSW,247,1.9,1.9,70,0.00,,,0.00,WUHU21623XXSP,2013-09-20 05:34:00,
2013-09-20 01:41:00,64.9,55.0,30.04,WSW,247,0.0,1.9,70,0.00,,,0.00,WUHU21623XXSP,2013-09-20 05:41:00,
2013-09-20 01:47:00,64.9,55.0,30.04,WSW,247,1.3,1.6,70,0.00,,,0.00,WUHU21623XXSP,2013-09-20 05:47:00,
2013-09-20 01:54:00,64.9,55.0,30.05,WSW,247,1.3,1.9,70,0.00,,,0.00,WUHU21623XXSP,2013-09-20 05:54:00,
2013-09-20 02:01:00,64.8,55.2,30.04,WSW,247,1.1,1.9,71,0.00,,,0.00,WUHU21623XXSP,2013-09-20 06:01:00,
2013-09-20 02:06:00,64.8,55.2,30.04,WSW,247,1.3,1.3,71,0.00,,,0.00,WUHU21623XXSP,2013-09-20 06:06:00,
2013-09-20 02:13:00,64.9,55.2,30.04,West,269,1.1,1.3,71,0.00,,,0.00,WUHU21623XXSP,2013-09-20 06:13:00,
2013-09-20 02:20:00,64.9,55.3,30.05,SW,224,0.8,1.1,71,0.00,,,0.00,WUHU21623XXSP,2013-09-20 06:20:00,
2013-09-20 02:26:00,65.1,55.5,30.04,WSW,247,0.0,0.8,71,0.00,,,0.00,WUHU21623XXSP,2013-09-20 06:26:00,
2013-09-20 02:32:00,65.1,55.1,30.04,SW,224,0.0,1.1,70,0.00,,,0.00,WUHU21623XXSP,2013-09-20 06:32:00,
2013-09-20 02:39:00,65.1,55.1,30.04,WSW,247,1.1,1.1,70,0.00,,,0.00,WUHU21623XXSP,2013-09-20 06:39:00,
2013-09-20 02:45:00,65.1,55.1,30.04,WSW,247,0.8,1.1,70,0.00,,,0.00,WUHU21623XXSP,2013-09-20 06:45:00,
2013-09-20 02:52:00,65.1,55.1,30.05,WSW,247,0.0,0.8,70,0.00,,,0.00,WUHU21623XXSP,2013-09-20 06:52:00,
2013-09-20 02:58:00,64.9,55.3,30.05,WSW,247,1.3,1.3,71,0.00,,,0.00,WUHU21623XXSP,2013-09-20 06:58:00,
2013-09-20 03:04:00,64.9,55.3,30.05,WSW,247,1.1,1.3,71,0.00,,,0.00,WUHU21623XXSP,2013-09-20 07:04:00,
2013-09-20 03:09:00,64.9,55.3,30.05,WSW,247,0.0,1.3,71,0.00,,,0.00,WUHU21623XXSP,2013-09-20 07:09:00,
2013-09-20 03:15:00,64.9,55.3,30.05,West,269,0.8,1.1,71,0.00,,,0.00,WUHU21623XXSP,2013-09-20 07:15:00,
2013-09-20 03:22:00,64.9,55.3,30.05,West,269,0.8,0.8,71,0.00,,,0.00,WUHU21623XXSP,2013-09-20 07:22:00,
2013-09-20 03:28:00,64.8,55.2,30.05,West,269,0.8,0.8,71,0.00,,,0.00,WUHU21623XXSP,2013-09-20 07:28:00,
2013-09-20 03:34:00,64.8,55.2,30.04,West,269,1.1,1.1,71,0.00,,,0.00,WUHU21623XXSP,2013-09-20 07:34:00,
2013-09-20 03:41:00,64.6,55.0,30.05,West,269,0.8,1.1,71,0.00,,,0.00,WUHU21623XXSP,2013-09-20 07:41:00,
2013-09-20 03:48:00,64.6,55.0,30.04,West,269,0.8,0.8,71,0.00,,,0.00,WUHU21623XXSP,2013-09-20 07:48:00,
2013-09-20 03:54:00,64.6,55.0,30.05,West,269,0.8,0.8,71,0.00,,,0.00,WUHU21623XXSP,2013-09-20 07:54:00,
2013-09-20 04:01:00,64.2,54.7,30.05,West,269,0.8,0.8,71,0.00,,,0.00,WUHU21623XXSP,2013-09-20 08:01:00,
2013-09-20 04:07:00,64.2,54.7,30.05,West,269,0.0,0.8,71,0.00,,,0.00,WUHU21623XXSP,2013-09-20 08:07:00,
2013-09-20 04:13:00,64.2,54.7,30.05,West,269,0.8,0.8,71,0.00,,,0.00,WUHU21623XXSP,2013-09-20 08:13:00,
2013-09-20 04:20:00,64.0,54.5,30.05,West,269,0.8,0.8,71,0.00,,,0.00,WUHU21623XXSP,2013-09-20 08:20:00,
2013-09-20 04:26:00,64.0,54.5,30.04,West,269,0.8,0.8,71,0.00,,,0.00,WUHU21623XXSP,2013-09-20 08:26:00,
2013-09-20 04:33:00,64.0,54.5,30.05,West,269,0.8,0.8,71,0.00,,,0.00,WUHU21623XXSP,2013-09-20 08:33:00,
2013-09-20 04:39:00,64.0,54.5,30.04,West,269,0.0,0.8,71,0.00,,,0.00,WUHU21623XXSP,2013-09-20 08:39:00,
2013-09-20 04:46:00,63.9,54.3,30.05,West,269,0.8,0.8,71,0.00,,,0.00,WUHU21623XXSP,2013-09-20 08:46:00,
2013-09-20 04:52:00,63.7,54.1,30.05,West,269,0.0,0.8,71,0.00,,,0.00,WUHU21623XXSP,2013-09-20 08:52:00,
2013-09-20 04:59:00,63.7,54.1,30.05,WSW,247,0.8,0.8,71,0.00,,,0.00,WUHU21623XXSP,2013-09-20 08:59:00,
2013-09-20 05:05:00,63.7,54.1,30.05,WSW,247,0.0,0.8,71,0.00,,,0.00,WUHU21623XXSP,2013-09-20 09:05:00,
2013-09-20 05:11:00,63.3,53.8,30.05,South,179,0.8,0.8,71,0.00,,,0.00,WUHU21623XXSP,2013-09-20 09:11:00,
2013-09-20 05:18:00,63.3,53.8,30.04,South,179,0.0,0.8,71,0.00,,,0.00,WUHU21623XXSP,2013-09-20 09:18:00,
2013-09-20 05:24:00,63.3,53.8,30.04,SSW,202,0.0,0.0,71,0.00,,,0.00,WUHU21623XXSP,2013-09-20 09:24:00,
2013-09-20 05:31:00,63.3,53.8,30.05,SSW,202,0.0,0.8,71,0.00,,,0.00,WUHU21623XXSP,2013-09-20 09:31:00,
2013-09-20 05:37:00,63.1,53.6,30.05,SSW,202,0.0,0.0,71,0.00,,,0.00,WUHU21623XXSP,2013-09-20 09:37:00,
2013-09-20 05:43:00,63.1,54.0,30.04,SSW,202,0.0,0.0,72,0.00,,,0.00,WUHU21623XXSP,2013-09-20 09:43:00,
2013-09-20 05:50:00,63.1,54.0,30.05,South,179,0.0,0.0,72,0.00,,,0.00,WUHU21623XXSP,2013-09-20 09:50:00,
2013-09-20 05:56:00,62.8,53.8,30.05,South,179,0.0,0.8,72,0.00,,,0.00,WUHU21623XXSP,2013-09-20 09:56:00,
2013-09-20 06:03:00,62.8,53.6,30.05,South,179,0.8,0.8,72,0.00,,,0.00,WUHU21623XXSP,2013-09-20 10:03:00,
2013-09-20 06:09:00,62.6,53.4,30.05,South,179,0.8,0.8,72,0.00,,,0.00,WUHU21623XXSP,2013-09-20 10:09:00,
2013-09-20 06:16:00,62.6,53.4,30.05,SSW,202,0.8,0.8,72,0.00,,,0.00,WUHU21623XXSP,2013-09-20 10:16:00,
2013-09-20 06:22:00,62.6,53.4,30.05,SSE,157,0.0,0.8,72,0.00,,,0.00,WUHU21623XXSP,2013-09-20 10:22:00,
2013-09-20 06:29:00,62.4,53.3,30.05,SSE,157,0.0,0.8,72,0.00,,,0.00,WUHU21623XXSP,2013-09-20 10:29:00,
2013-09-20 06:35:00,62.2,52.7,30.05,SE,134,0.8,0.8,71,0.00,,,0.00,WUHU21623XXSP,2013-09-20 10:35:00,
2013-09-20 06:41:00,62.1,52.6,30.06,SSE,157,0.0,0.8,71,0.00,,,0.00,WUHU21623XXSP,2013-09-20 10:41:00,
2013-09-20 06:48:00,61.9,52.4,30.06,South,179,0.8,0.8,71,0.00,,,0.00,WUHU21623XXSP,2013-09-20 10:48:00,
2013-09-20 06:54:00,62.1,52.6,30.06,South,179,0.0,0.8,71,0.00,,,0.00,WUHU21623XXSP,2013-09-20 10:54:00,
2013-09-20 07:01:00,61.9,52.4,30.06,SSE,157,0.0,0.0,71,0.00,,,0.00,WUHU21623XXSP,2013-09-20 11:01:00,
2013-09-20 07:07:00,61.7,52.6,30.06,SSE,157,0.0,0.0,72,0.00,,,0.00,WUHU21623XXSP,2013-09-20 11:07:00,
2013-09-20 07:14:00,61.5,52.4,30.06,SSE,157,0.0,0.8,72,0.00,,,0.00,WUHU21623XXSP,2013-09-20 11:14:00,
2013-09-20 07:20:00,61.7,52.6,30.06,SSW,202,0.0,0.8,72,0.00,,,0.00,WUHU21623XXSP,2013-09-20 11:20:00,
2013-09-20 07:27:00,61.5,52.4,30.06,SSE,157,0.8,0.8,72,0.00,,,0.00,WUHU21623XXSP,2013-09-20 11:27:00,
2013-09-20 07:33:00,61.5,52.4,30.06,SSE,157,0.0,0.8,72,0.00,,,0.00,WUHU21623XXSP,2013-09-20 11:33:00,
2013-09-20 07:39:00,61.5,52.4,30.06,SSE,157,0.0,0.0,73,0.00,,,0.00,WUHU21623XXSP,2013-09-20 11:39:00,
2013-09-20 07:46:00,61.7,53.0,30.06,SW,224,0.0,0.8,73,0.00,,,0.00,WUHU21623XXSP,2013-09-20 11:46:00,
2013-09-20 07:52:00,61.9,53.1,30.06,South,179,1.1,1.1,73,0.00,,,0.00,WUHU21623XXSP,2013-09-20 11:52:00,
2013-09-20 07:59:00,61.9,53.5,30.06,SSW,202,0.8,1.1,74,0.00,,,0.00,WUHU21623XXSP,2013-09-20 11:59:00,
2013-09-20 08:05:00,62.2,53.8,30.05,SW,224,0.0,0.8,74,0.00,,,0.00,WUHU21623XXSP,2013-09-20 12:05:00,
2013-09-20 08:11:00,62.4,54.0,30.05,SW,224,0.0,0.0,74,0.00,,,0.00,WUHU21623XXSP,2013-09-20 12:11:00,
2013-09-20 08:18:00,62.8,54.3,30.05,WSW,247,0.0,1.1,74,0.00,,,0.00,WUHU21623XXSP,2013-09-20 12:18:00,
2013-09-20 08:24:00,63.0,54.9,30.05,WSW,247,1.3,1.3,75,0.00,,,0.00,WUHU21623XXSP,2013-09-20 12:24:00,
2013-09-20 08:34:00,63.1,55.0,30.05,SW,224,1.6,1.6,75,0.00,,,0.00,WUHU21623XXSP,2013-09-20 12:34:00,
2013-09-20 08:39:00,63.3,55.2,30.05,West,269,0.0,1.9,75,0.00,,,0.00,WUHU21623XXSP,2013-09-20 12:39:00,
2013-09-20 08:46:00,63.5,55.4,30.05,West,269,0.0,1.9,75,0.00,,,0.00,WUHU21623XXSP,2013-09-20 12:46:00,
2013-09-20 08:52:00,63.7,55.6,30.05,WSW,247,0.0,0.0,75,0.00,,,0.00,WUHU21623XXSP,2013-09-20 12:52:00,
2013-09-20 08:59:00,64.2,56.1,30.05,WSW,247,0.0,0.0,75,0.00,,,0.00,WUHU21623XXSP,2013-09-20 12:59:00,
2013-09-20 09:05:00,64.2,56.1,30.05,SW,224,0.0,0.0,75,0.00,,,0.00,WUHU21623XXSP,2013-09-20 13:05:00,
2013-09-20 09:11:00,64.6,56.5,30.06,WSW,247,0.0,0.0,75,0.00,,,0.00,WUHU21623XXSP,2013-09-20 13:11:00,
2013-09-20 09:18:00,64.9,56.8,30.06,WSW,247,0.0,1.9,75,0.00,,,0.00,WUHU21623XXSP,2013-09-20 13:18:00,
2013-09-20 09:24:00,65.3,57.1,30.06,WSW,247,1.6,4.8,75,0.00,,,0.00,WUHU21623XXSP,2013-09-20 13:24:00,
2013-09-20 09:31:00,65.5,56.9,30.06,WSW,247,1.1,4.8,74,0.00,,,0.00,WUHU21623XXSP,2013-09-20 13:31:00,
2013-09-20 09:37:00,65.8,57.3,30.06,WSW,247,1.1,1.1,74,0.00,,,0.00,WUHU21623XXSP,2013-09-20 13:37:00,
2013-09-20 09:44:00,66.0,57.5,30.06,WNW,292,3.2,3.2,74,0.00,,,0.00,WUHU21623XXSP,2013-09-20 13:44:00,
2013-09-20 09:50:00,66.4,57.8,30.06,SW,224,4.6,4.6,74,0.00,,,0.00,WUHU21623XXSP,2013-09-20 13:50:00,
2013-09-20 09:56:00,66.7,58.2,30.06,West,269,1.3,4.6,73,0.00,,,0.00,WUHU21623XXSP,2013-09-20 13:56:00,
2013-09-20 10:03:00,67.1,58.0,30.05,West,269,1.6,3.7,73,0.00,,,0.00,WUHU21623XXSP,2013-09-20 14:03:00,
2013-09-20 10:09:00,67.3,58.0,30.05,SW,224,3.7,7.0,72,0.00,,,0.00,WUHU21623XXSP,2013-09-20 14:09:00,
2013-09-20 10:16:00,67.6,58.3,30.06,SW,224,3.6,7.0,72,0.00,,,0.00,WUHU21623XXSP,2013-09-20 14:16:00,
2013-09-20 10:22:00,67.8,58.5,30.05,South,179,1.3,3.7,72,0.00,,,0.00,WUHU21623XXSP,2013-09-20 14:22:00,
2013-09-20 10:29:00,68.2,58.8,30.06,NW,314,0.8,1.6,72,0.00,,,0.00,WUHU21623XXSP,2013-09-20 14:29:00,
2013-09-20 10:35:00,68.4,58.6,30.06,South,179,4.6,4.6,71,0.00,,,0.00,WUHU21623XXSP,2013-09-20 14:35:00,
2013-09-20 10:42:00,68.7,58.9,30.06,SW,224,4.3,4.6,71,0.00,,,0.00,WUHU21623XXSP,2013-09-20 14:42:00,
2013-09-20 10:48:00,68.9,58.7,30.06,WSW,247,2.4,4.3,70,0.00,,,0.00,WUHU21623XXSP,2013-09-20 14:48:00,
2013-09-20 10:55:00,69.1,58.9,30.06,SW,224,1.1,4.3,70,0.00,,,0.00,WUHU21623XXSP,2013-09-20 14:55:00,
2013-09-20 11:01:00,69.4,58.8,30.05,West,269,1.6,2.6,69,0.00,,,0.00,WUHU21623XXSP,2013-09-20 15:01:00,
2013-09-20 11:07:00,69.8,58.3,30.06,SSW,202,4.6,4.6,67,0.00,,,0.00,WUHU21623XXSP,2013-09-20 15:07:00,
2013-09-20 11:14:00,70.3,58.4,30.05,WNW,292,2.2,7.8,66,0.00,,,0.00,WUHU21623XXSP,2013-09-20 15:14:00,
2013-09-20 11:20:00,70.5,57.7,30.05,SSW,202,3.5,7.8,64,0.00,,,0.00,WUHU21623XXSP,2013-09-20 15:20:00,
2013-09-20 11:27:00,70.9,58.4,30.05,West,260,2.8,4.1,64,0.00,,,0.00,WUHU21623XXSP,2013-09-20 15:27:00,
2013-09-20 11:33:00,71.4,58.1,30.04,WNW,292,3.2,4.1,63,0.00,,,0.00,WUHU21623XXSP,2013-09-20 15:33:00,
2013-09-20 11:39:00,72.0,58.6,30.04,SSW,202,6.1,6.1,63,0.00,,,0.00,WUHU21623XXSP,2013-09-20 15:39:00,
2013-09-20 11:46:00,72.3,58.5,30.04,South,179,6.1,6.1,62,0.00,,,0.00,WUHU21623XXSP,2013-09-20 15:46:00,
2013-09-20 11:52:00,72.9,58.2,30.04,South,179,8.3,8.3,60,0.00,,,0.00,WUHU21623XXSP,2013-09-20 15:52:00,
2013-09-20 11:59:00,73.0,58.3,30.04,WSW,247,8.0,8.3,60,0.00,,,0.00,WUHU21623XXSP,2013-09-20 15:59:00,
2013-09-20 12:05:00,73.2,58.0,30.04,South,179,5.6,9.1,59,0.00,,,0.00,WUHU21623XXSP,2013-09-20 16:05:00,
2013-09-20 12:12:00,73.2,58.0,30.03,WSW,247,3.5,5.6,59,0.00,,,0.00,WUHU21623XXSP,2013-09-20 16:12:00,
2013-09-20 12:18:00,73.4,58.1,30.04,SSW,202,5.6,6.5,59,0.00,,,0.00,WUHU21623XXSP,2013-09-20 16:18:00,
2013-09-20 12:24:00,73.9,59.0,30.04,SSW,202,5.9,6.5,59,0.00,,,0.00,WUHU21623XXSP,2013-09-20 16:24:00,
2013-09-20 12:31:00,74.1,58.9,30.04,SSE,157,2.2,5.9,59,0.00,,,0.00,WUHU21623XXSP,2013-09-20 16:31:00,
2013-09-20 12:37:00,74.5,59.2,30.03,SSW,202,4.6,4.6,59,0.00,,,0.00,WUHU21623XXSP,2013-09-20 16:37:00,
2013-09-20 12:44:00,75.0,59.3,30.04,South,179,5.4,5.4,58,0.00,,,0.00,WUHU21623XXSP,2013-09-20 16:44:00,
2013-09-20 12:50:00,75.4,59.1,30.04,SW,221,4.0,5.4,57,0.00,,,0.00,WUHU21623XXSP,2013-09-20 16:50:00,
2013-09-20 12:57:00,75.9,59.6,30.04,SSW,202,3.5,4.6,57,0.00,,,0.00,WUHU21623XXSP,2013-09-20 16:57:00,
2013-09-20 13:03:00,76.3,59.2,30.04,ESE,112,2.4,4.3,57,0.00,,,0.00,WUHU21623XXSP,2013-09-20 17:03:00,
2013-09-20 13:09:00,76.8,59.9,30.03,SE,134,3.0,5.9,56,0.00,,,0.00,WUHU21623XXSP,2013-09-20 17:09:00,
2013-09-20 13:16:00,77.5,59.5,30.03,SSW,202,5.4,9.4,54,0.00,,,0.00,WUHU21623XXSP,2013-09-20 17:16:00,
2013-09-20 13:22:00,78.4,59.3,30.02,SW,224,4.6,9.4,52,0.00,,,0.00,WUHU21623XXSP,2013-09-20 17:22:00,
2013-09-20 13:29:00,79.0,59.8,30.02,WSW,247,4.1,11.5,52,0.00,,,0.00,WUHU21623XXSP,2013-09-20 17:29:00,
2013-09-20 13:35:00,79.5,60.3,30.02,SW,224,4.1,6.5,52,0.00,,,0.00,WUHU21623XXSP,2013-09-20 17:35:00,
2013-09-20 13:42:00,80.4,60.6,30.01,South,179,4.6,5.4,51,0.00,,,0.00,WUHU21623XXSP,2013-09-20 17:42:00,
2013-09-20 13:48:00,81.1,60.7,30.01,SE,134,1.9,5.2,50,0.00,,,0.00,WUHU21623XXSP,2013-09-20 17:48:00,
2013-09-20 13:54:00,81.7,60.6,30.01,SW,224,7.0,7.0,49,0.00,,,0.00,WUHU21623XXSP,2013-09-20 17:54:00,
2013-09-20 14:01:00,81.7,60.6,30.01,SSW,202,4.3,7.0,49,0.00,,,0.00,WUHU21623XXSP,2013-09-20 18:01:00,
2013-09-20 14:07:00,81.7,60.6,30.01,SW,224,2.4,4.6,49,0.00,,,0.00,WUHU21623XXSP,2013-09-20 18:07:00,
2013-09-20 14:14:00,81.5,60.5,30.00,SW,224,4.6,8.9,49,0.00,,,0.00,WUHU21623XXSP,2013-09-20 18:14:00,
2013-09-20 14:20:00,81.0,60.0,30.01,South,179,6.5,8.9,49,0.00,,,0.00,WUHU21623XXSP,2013-09-20 18:20:00,
2013-09-20 14:27:00,80.6,59.6,30.00,SW,224,6.7,6.7,49,0.00,,,0.00,WUHU21623XXSP,2013-09-20 18:27:00,
2013-09-20 14:33:00,80.1,59.3,30.00,WSW,247,6.1,6.7,49,0.00,,,0.00,WUHU21623XXSP,2013-09-20 18:33:00,
2013-09-20 14:39:00,79.3,59.1,30.00,South,179,5.4,6.1,50,0.00,,,0.00,WUHU21623XXSP,2013-09-20 18:39:00,
2013-09-20 14:46:00,78.6,59.0,30.00,South,179,3.0,5.4,51,0.00,,,0.00,WUHU21623XXSP,2013-09-20 18:46:00,
2013-09-20 14:52:00,78.4,58.8,30.00,SSE,157,1.1,8.0,51,0.00,,,0.00,WUHU21623XXSP,2013-09-20 18:52:00,
2013-09-20 14:58:00,77.5,58.3,30.01,SW,224,3.5,5.6,51,0.00,,,0.00,WUHU21623XXSP,2013-09-20 18:58:00,
2013-09-20 15:05:00,77.2,58.4,30.00,SSE,157,2.2,3.7,52,0.00,,,0.00,WUHU21623XXSP,2013-09-20 19:05:00,
2013-09-20 15:12:00,76.6,58.2,30.01,SSE,157,1.9,8.0,53,0.00,,,0.00,WUHU21623XXSP,2013-09-20 19:12:00,
2013-09-20 15:18:00,76.1,58.2,30.00,SSW,202,9.1,10.0,54,0.00,,,0.00,WUHU21623XXSP,2013-09-20 19:18:00,
2013-09-20 15:24:00,75.9,58.1,30.00,South,179,5.9,9.1,54,0.00,,,0.00,WUHU21623XXSP,2013-09-20 19:24:00,
2013-09-20 15:31:00,75.7,57.9,30.00,WSW,247,5.9,6.5,54,0.00,,,0.00,WUHU21623XXSP,2013-09-20 19:31:00,
2013-09-20 15:37:00,75.4,57.6,30.00,SSW,202,7.8,9.4,54,0.00,,,0.00,WUHU21623XXSP,2013-09-20 19:37:00,
2013-09-20 15:44:00,74.8,57.1,30.00,SSW,202,12.6,12.6,54,0.00,,,0.00,WUHU21623XXSP,2013-09-20 19:44:00,
2013-09-20 15:50:00,74.5,57.2,29.99,SE,134,5.6,12.6,55,0.00,,,0.00,WUHU21623XXSP,2013-09-20 19:50:00,
2013-09-20 15:56:00,74.1,57.0,29.99,SSE,157,2.4,7.6,55,0.00,,,0.00,WUHU21623XXSP,2013-09-20 19:56:00,
2013-09-20 16:03:00,73.9,57.7,29.99,South,179,1.9,6.1,57,0.00,,,0.00,WUHU21623XXSP,2013-09-20 20:03:00,
2013-09-20 16:11:00,73.6,57.8,30.00,South,183,8.6,10.0,58,0.00,,,0.00,WUHU21623XXSP,2013-09-20 20:11:00,
2013-09-20 16:18:00,73.2,58.0,30.00,SE,134,4.6,10.0,59,0.00,,,0.00,WUHU21623XXSP,2013-09-20 20:18:00,
2013-09-20 16:24:00,73.0,57.8,29.99,SSW,202,10.7,10.7,59,0.00,,,0.00,WUHU21623XXSP,2013-09-20 20:24:00,
2013-09-20 16:31:00,72.9,57.7,29.99,WSW,247,3.7,10.7,60,0.00,,,0.00,WUHU21623XXSP,2013-09-20 20:31:00,
2013-09-20 16:37:00,72.7,58.2,29.99,East,89,2.4,3.7,60,0.00,,,0.00,WUHU21623XXSP,2013-09-20 20:37:00,
2013-09-20 16:44:00,72.5,58.3,29.99,South,179,4.3,4.6,61,0.00,,,0.00,WUHU21623XXSP,2013-09-20 20:44:00,
2013-09-20 16:50:00,72.5,58.7,29.99,SSW,202,6.1,6.1,62,0.00,,,0.00,WUHU21623XXSP,2013-09-20 20:50:00,
2013-09-20 16:56:00,72.3,59.0,29.99,WSW,247,3.7,6.1,63,0.00,,,0.00,WUHU21623XXSP,2013-09-20 20:56:00,
2013-09-20 17:03:00,72.5,59.1,29.99,SSW,202,5.4,11.0,63,0.00,,,0.00,WUHU21623XXSP,2013-09-20 21:03:00,
2013-09-20 17:09:00,72.7,59.3,29.99,SSE,157,3.2,5.4,63,0.00,,,0.00,WUHU21623XXSP,2013-09-20 21:09:00,
2013-09-20 17:16:00,72.7,59.3,29.99,WSW,247,1.6,5.9,63,0.00,,,0.00,WUHU21623XXSP,2013-09-20 21:16:00,
2013-09-20 17:22:00,72.7,59.3,29.99,SW,224,6.1,6.1,63,0.00,,,0.00,WUHU21623XXSP,2013-09-20 21:22:00,
2013-09-20 17:29:00,72.7,59.3,30.00,SSE,157,1.9,6.1,63,0.00,,,0.00,WUHU21623XXSP,2013-09-20 21:29:00,
2013-09-20 17:35:00,72.5,59.6,29.99,South,179,5.4,5.9,64,0.00,,,0.00,WUHU21623XXSP,2013-09-20 21:35:00,
2013-09-20 17:42:00,72.1,59.3,30.00,SW,224,2.2,7.0,64,0.00,,,0.00,WUHU21623XXSP,2013-09-20 21:42:00,
2013-09-20 17:48:00,71.8,59.5,29.99,South,179,4.3,4.3,65,0.00,,,0.00,WUHU21623XXSP,2013-09-20 21:48:00,
2013-09-20 17:54:00,71.8,59.8,29.99,SSW,202,6.1,6.1,66,0.00,,,0.00,WUHU21623XXSP,2013-09-20 21:54:00,
2013-09-20 18:01:00,71.6,59.6,30.00,SSE,157,1.9,6.1,66,0.00,,,0.00,WUHU21623XXSP,2013-09-20 22:01:00,
2013-09-20 18:07:00,71.4,59.4,29.99,SSW,202,8.6,8.6,66,0.00,,,0.00,WUHU21623XXSP,2013-09-20 22:07:00,
2013-09-20 18:14:00,71.4,59.9,29.99,South,179,3.2,8.6,67,0.00,,,0.00,WUHU21623XXSP,2013-09-20 22:14:00,
2013-09-20 18:20:00,71.2,59.7,30.00,SW,224,3.7,3.7,67,0.00,,,0.00,WUHU21623XXSP,2013-09-20 22:20:00,
2013-09-20 18:26:00,70.9,59.3,30.00,South,179,2.2,5.4,67,0.00,,,0.00,WUHU21623XXSP,2013-09-20 22:26:00,
2013-09-20 18:33:00,70.5,59.4,29.99,WSW,247,4.6,5.4,68,0.00,,,0.00,WUHU21623XXSP,2013-09-20 22:33:00,
2013-09-20 18:39:00,70.3,59.2,29.99,South,179,1.3,4.8,68,0.00,,,0.00,WUHU21623XXSP,2013-09-20 22:39:00,
2013-09-20 18:46:00,70.2,59.5,29.99,SSW,202,1.1,3.5,69,0.00,,,0.00,WUHU21623XXSP,2013-09-20 22:46:00,
2013-09-20 18:52:00,69.8,59.1,29.99,South,179,5.4,5.4,69,0.00,,,0.00,WUHU21623XXSP,2013-09-20 22:52:00,
2013-09-20 18:59:00,69.4,59.2,29.99,SSE,157,2.4,7.2,70,0.00,,,0.00,WUHU21623XXSP,2013-09-20 22:59:00,
2013-09-20 19:05:00,69.4,59.2,29.98,ESE,112,1.1,5.4,70,0.00,,,0.00,WUHU21623XXSP,2013-09-20 23:05:00,
2013-09-20 19:11:00,69.3,59.1,29.99,South,179,5.4,5.4,70,0.00,,,0.00,WUHU21623XXSP,2013-09-20 23:11:00,
2013-09-20 19:18:00,69.1,58.9,29.98,SSE,157,1.9,5.4,70,0.00,,,0.00,WUHU21623XXSP,2013-09-20 23:18:00,
2013-09-20 19:24:00,69.1,58.9,29.98,South,179,1.6,2.6,70,0.00,,,0.00,WUHU21623XXSP,2013-09-20 23:24:00,
2013-09-20 19:31:00,68.9,58.7,29.98,SW,224,0.0,1.6,70,0.00,,,0.00,WUHU21623XXSP,2013-09-20 23:31:00,
2013-09-20 19:37:00,68.9,58.7,29.99,SSE,157,2.6,2.6,70,0.00,,,0.00,WUHU21623XXSP,2013-09-20 23:37:00,
2013-09-20 19:44:00,68.7,58.6,29.99,South,179,3.0,3.0,70,0.00,,,0.00,WUHU21623XXSP,2013-09-20 23:44:00,
2013-09-20 19:50:00,68.7,58.9,29.99,SSW,193,1.1,3.0,71,0.00,,,0.00,WUHU21623XXSP,2013-09-20 23:50:00,
2013-09-20 19:57:00,68.5,58.8,29.99,SSW,202,0.8,1.9,71,0.00,,,0.00,WUHU21623XXSP,2013-09-20 23:57:00,
2013-09-20 20:03:00,68.5,58.8,29.99,South,179,1.9,2.4,71,0.00,,,0.00,WUHU21623XXSP,2013-09-21 00:03:00,
2013-09-20 20:09:00,68.4,59.0,29.99,SE,134,1.1,2.4,72,0.00,,,0.00,WUHU21623XXSP,2013-09-21 00:09:00,
2013-09-20 20:16:00,68.2,58.8,29.99,SSW,202,2.4,2.6,72,0.00,,,0.00,WUHU21623XXSP,2013-09-21 00:16:00,
2013-09-20 20:22:00,68.2,59.2,29.99,South,179,0.8,5.4,73,0.00,,,0.00,WUHU21623XXSP,2013-09-21 00:22:00,
2013-09-20 20:29:00,67.8,58.9,29.99,SSE,157,0.0,5.4,73,0.00,,,0.00,WUHU21623XXSP,2013-09-21 00:29:00,
2013-09-20 20:35:00,67.8,58.9,29.98,South,179,2.6,3.5,73,0.00,,,0.00,WUHU21623XXSP,2013-09-21 00:35:00,
2013-09-20 20:42:00,67.8,58.9,29.98,South,191,2.0,2.6,73,0.00,,,0.00,WUHU21623XXSP,2013-09-21 00:42:00,
2013-09-20 20:48:00,67.8,58.9,29.98,South,179,2.4,2.4,73,0.00,,,0.00,WUHU21623XXSP,2013-09-21 00:48:00,
2013-09-20 20:55:00,67.8,59.3,29.98,South,179,2.4,3.0,74,0.00,,,0.00,WUHU21623XXSP,2013-09-21 00:55:00,
2013-09-20 21:02:00,67.6,59.1,29.98,South,179,1.6,3.0,74,0.00,,,0.00,WUHU21623XXSP,2013-09-21 01:02:00,
2013-09-20 21:07:00,67.6,59.1,29.98,South,179,3.2,3.2,74,0.00,,,0.00,WUHU21623XXSP,2013-09-21 01:07:00,
2013-09-20 21:14:00,67.6,59.1,29.98,South,179,2.3,3.2,74,0.00,,,0.00,WUHU21623XXSP,2013-09-21 01:14:00,
2013-09-20 21:20:00,67.6,59.1,29.99,SW,224,0.8,3.0,74,0.00,,,0.00,WUHU21623XXSP,2013-09-21 01:20:00,
2013-09-20 21:27:00,67.8,58.9,29.99,SW,224,1.1,1.3,73,0.00,,,0.00,WUHU21623XXSP,2013-09-21 01:27:00,
2013-09-20 21:33:00,67.8,58.9,29.99,SSW,202,2.2,2.2,73,0.00,,,0.00,WUHU21623XXSP,2013-09-21 01:33:00,
2013-09-20 21:40:00,67.8,58.9,29.99,SSW,202,1.1,2.2,73,0.00,,,0.00,WUHU21623XXSP,2013-09-21 01:40:00,
2013-09-20 21:46:00,67.8,58.9,29.99,SW,224,0.0,1.1,73,0.00,,,0.00,WUHU21623XXSP,2013-09-21 01:46:00,
2013-09-20 21:52:00,67.8,58.9,29.99,SSW,202,0.8,0.8,73,0.00,,,0.00,WUHU21623XXSP,2013-09-21 01:52:00,
2013-09-20 21:59:00,67.8,58.9,29.99,SSW,202,0.0,1.9,73,0.00,,,0.00,WUHU21623XXSP,2013-09-21 01:59:00,
2013-09-20 22:05:00,67.8,58.9,29.98,SSW,202,3.0,3.0,73,0.00,,,0.00,WUHU21623XXSP,2013-09-21 02:05:00,
2013-09-20 22:12:00,67.8,58.9,29.98,South,179,0.0,3.0,73,0.00,,,0.00,WUHU21623XXSP,2013-09-21 02:12:00,
2013-09-20 22:18:00,67.8,58.9,29.98,SW,224,1.1,3.5,73,0.00,,,0.00,WUHU21623XXSP,2013-09-21 02:18:00,
2013-09-20 22:24:00,67.8,58.9,29.98,WSW,247,0.0,1.6,73,0.00,,,0.00,WUHU21623XXSP,2013-09-21 02:24:00,
2013-09-20 22:31:00,67.8,58.9,29.98,WSW,247,0.8,1.9,73,0.00,,,0.00,WUHU21623XXSP,2013-09-21 02:31:00,
2013-09-20 22:37:00,67.8,58.9,29.98,WSW,247,0.0,1.9,73,0.00,,,0.00,WUHU21623XXSP,2013-09-21 02:37:00,
2013-09-20 22:44:00,67.8,58.9,29.98,WSW,247,0.0,1.6,73,0.00,,,0.00,WUHU21623XXSP,2013-09-21 02:44:00,
2013-09-20 22:51:00,67.8,58.9,29.98,SW,224,1.1,1.1,73,0.00,,,0.00,WUHU21623XXSP,2013-09-21 02:51:00,
2013-09-20 22:57:00,67.8,58.9,29.98,West,269,0.0,1.1,73,0.00,,,0.00,WUHU21623XXSP,2013-09-21 02:57:00,
2013-09-20 23:03:00,67.8,58.9,29.98,WSW,247,0.0,0.0,73,0.00,,,0.00,WUHU21623XXSP,2013-09-21 03:03:00,
2013-09-20 23:10:00,67.8,58.9,29.98,WSW,247,0.0,1.1,73,0.00,,,0.00,WUHU21623XXSP,2013-09-21 03:10:00,
2013-09-20 23:16:00,67.8,58.9,29.99,WSW,247,0.0,0.8,73,0.00,,,0.00,WUHU21623XXSP,2013-09-21 03:16:00,
2013-09-20 23:23:00,67.8,58.9,29.99,WSW,247,0.0,0.8,73,0.00,,,0.00,WUHU21623XXSP,2013-09-21 03:23:00,
2013-09-20 23:29:00,67.8,58.9,29.99,WSW,247,0.0,0.0,73,0.00,,,0.00,WUHU21623XXSP,2013-09-21 03:29:00,
2013-09-20 23:36:00,67.8,58.9,29.99,WSW,247,0.0,0.0,73,0.00,,,0.00,WUHU21623XXSP,2013-09-21 03:36:00,
2013-09-20 23:42:00,67.8,58.9,29.99,WSW,247,0.0,0.0,73,0.00,,,0.00,WUHU21623XXSP,2013-09-21 03:42:00,
2013-09-20 23:48:00,67.6,58.7,29.99,SSW,202,0.0,1.1,73,0.00,,,0.00,WUHU21623XXSP,2013-09-21 03:48:00,
2013-09-20 23:55:00,67.6,59.1,29.99,South,179,1.3,2.4,74,0.00,,,0.00,WUHU21623XXSP,2013-09-21 03:55:00,